Lake Linden, Michigan
Current Conditions -  °F | °C
As of 5:53 AM on Saturday 22 Nov 2014 (Local Time) from KCMX Reporting Station
Scattered Clouds Scattered Clouds  
Wind Chill: 24°   Ceiling: Unl
Heat Index: 33°   Visibility: 10mi
Dew Point: 24°   Wind: 13mph
Humidity: 70%   Direction: 240°WSW
Pressure: 29.68"   Gusts: 20mph
Location:  47.19°N, 88.41°W
Report Text: KCMX 221053Z AUTO 24011G17KT 10SM SCT120 01/M04 A2968 RMK AO2 SLP063 T00061044
Loading
Personal Weather Stations






























Interactive Weather Map New forecast layout! Learn more

10-Day Weather Forecast

Advertisements
Track Severe Weather on mobile